createdAt,value
2018-04-02T00:00:55.860Z,13.07
2018-04-02T00:03:24.811Z,10.27
2018-04-02T00:05:53.687Z,9.93
2018-04-02T00:08:22.481Z,10.57
2018-04-02T00:10:50.913Z,17.77
2018-04-02T00:13:19.587Z,12.60
2018-04-02T00:15:49.257Z,14.25
2018-04-02T00:18:17.892Z,17.42
2018-04-02T00:20:46.361Z,15.85
2018-04-02T00:23:15.023Z,18.00
2018-04-02T00:25:43.769Z,33.55
2018-04-02T00:28:12.311Z,11.50
2018-04-02T00:30:40.998Z,12.73
2018-04-02T00:33:09.434Z,16.90
2018-04-02T00:35:37.831Z,15.02
2018-04-02T00:38:06.713Z,13.62
2018-04-02T00:40:35.091Z,14.95
2018-04-02T00:43:03.559Z,17.37
2018-04-02T00:45:32.767Z,18.40
2018-04-02T00:48:01.127Z,12.82
2018-04-02T00:50:29.466Z,12.85
2018-04-02T00:52:58.722Z,12.55
2018-04-02T00:55:27.066Z,15.02
2018-04-02T00:57:56.592Z,11.15
2018-04-02T01:00:25.539Z,9.80
2018-04-02T01:02:54.113Z,12.02
2018-04-02T01:05:22.651Z,13.20
2018-04-02T01:07:52.006Z,13.40
2018-04-02T01:10:20.607Z,7.18
2018-04-02T01:12:50.040Z,8.20
2018-04-02T01:15:18.673Z,12.82
2018-04-02T01:17:47.255Z,9.07
2018-04-02T01:20:16.102Z,9.90
2018-04-02T01:22:44.941Z,12.00
2018-04-02T01:25:13.678Z,18.27
2018-04-02T01:27:42.190Z,9.18
2018-04-02T01:30:10.587Z,9.80
2018-04-02T01:32:39.014Z,11.35
2018-04-02T01:35:07.455Z,10.45
2018-04-02T01:37:37.009Z,10.10
2018-04-02T01:40:05.360Z,9.93
2018-04-02T01:42:33.779Z,9.60
2018-04-02T01:45:02.180Z,9.52
2018-04-02T01:47:30.516Z,9.23
2018-04-02T01:49:58.890Z,11.43
2018-04-02T01:52:27.352Z,10.90
2018-04-02T01:54:55.830Z,19.33
2018-04-02T01:57:24.356Z,12.55
2018-04-02T01:59:52.771Z,11.27
2018-04-02T02:02:21.125Z,9.38
2018-04-02T02:04:49.560Z,8.70
2018-04-02T02:07:18.168Z,10.95
2018-04-02T02:09:46.586Z,14.35
2018-04-02T02:12:15.102Z,10.20
2018-04-02T02:14:43.481Z,13.45
2018-04-02T02:17:11.957Z,10.40
2018-04-02T02:19:40.381Z,12.55
2018-04-02T02:22:08.765Z,11.18
2018-04-02T02:24:37.153Z,9.18
2018-04-02T02:27:05.511Z,14.98
2018-04-02T02:29:33.908Z,13.43
2018-04-02T02:32:02.515Z,9.57
2018-04-02T02:34:30.932Z,14.23
2018-04-02T02:36:59.820Z,10.45
2018-04-02T02:39:28.221Z,10.43
2018-04-02T02:41:56.620Z,16.70
2018-04-02T02:44:25.972Z,14.70
2018-04-02T02:46:54.524Z,13.43
2018-04-02T02:49:23.003Z,14.18
2018-04-02T02:51:51.538Z,12.27
2018-04-02T02:54:19.947Z,10.30
2018-04-02T02:56:48.354Z,13.55
2018-04-02T02:59:16.929Z,12.70
2018-04-02T03:01:45.673Z,13.57
2018-04-02T03:04:14.093Z,11.50
2018-04-02T03:06:42.688Z,12.80
2018-04-02T03:09:11.160Z,16.37
2018-04-02T03:11:39.566Z,14.73
2018-04-02T03:14:08.710Z,14.63
2018-04-02T03:16:37.090Z,18.40
2018-04-02T03:19:05.430Z,24.23
2018-04-02T03:21:34.074Z,16.02
2018-04-02T03:24:02.467Z,25.17
2018-04-02T03:26:30.843Z,21.15
2018-04-02T03:28:59.323Z,24.75
2018-04-02T03:31:27.722Z,18.20
2018-04-02T03:33:56.134Z,26.05
2018-04-02T03:36:24.531Z,22.87
2018-04-02T03:38:52.962Z,21.35
2018-04-02T03:41:21.361Z,17.42
2018-04-02T03:43:49.993Z,17.60
2018-04-02T03:46:24.193Z,29.80
2018-04-02T03:48:52.758Z,16.60
2018-04-02T03:51:21.097Z,14.73
2018-04-02T03:53:49.501Z,17.17
2018-04-02T03:56:18.126Z,20.62
2018-04-02T03:58:46.842Z,18.65
2018-04-02T04:01:15.452Z,15.88
2018-04-02T04:03:44.705Z,13.98
2018-04-02T04:06:13.114Z,23.27
2018-04-02T04:08:41.613Z,23.10
2018-04-02T04:11:10.109Z,14.00
2018-04-02T04:13:40.383Z,16.80
2018-04-02T04:16:08.745Z,14.27
2018-04-02T04:18:37.144Z,18.90
2018-04-02T04:21:05.517Z,32.10
2018-04-02T04:23:33.862Z,20.77
2018-04-02T04:26:02.585Z,14.85
2018-04-02T04:28:30.941Z,11.77
2018-04-02T04:30:59.337Z,16.00
2018-04-02T04:33:27.749Z,13.65
2018-04-02T04:35:56.107Z,14.63
2018-04-02T04:38:24.466Z,15.93
2018-04-02T04:40:53.372Z,19.40
2018-04-02T04:43:21.724Z,12.60
2018-04-02T04:45:50.071Z,16.80
2018-04-02T04:48:19.323Z,18.20
2018-04-02T04:50:47.704Z,11.73
2018-04-02T04:53:16.386Z,11.68
2018-04-02T04:55:44.808Z,22.20
2018-04-02T04:58:13.254Z,20.15
2018-04-02T05:00:41.662Z,12.25
2018-04-02T05:03:10.409Z,25.35
2018-04-02T05:05:38.797Z,14.85
2018-04-02T05:08:07.196Z,17.52
2018-04-02T05:10:36.178Z,14.18
2018-04-02T05:13:04.547Z,11.20
2018-04-02T05:15:32.993Z,11.25
2018-04-02T05:18:01.368Z,23.45
2018-04-02T05:20:29.739Z,7.53
2018-04-02T05:22:58.082Z,13.30
2018-04-02T05:25:28.044Z,18.77
2018-04-02T05:27:56.482Z,11.77
2018-04-02T05:30:25.037Z,19.92
2018-04-02T05:32:54.295Z,9.60
2018-04-02T05:35:22.842Z,8.38
2018-04-02T05:37:51.308Z,16.15
2018-04-02T05:40:21.608Z,11.18
2018-04-02T05:42:50.558Z,8.85
2018-04-02T05:45:19.110Z,17.17
2018-04-02T05:47:47.936Z,13.38
2018-04-02T05:50:16.413Z,10.40
2018-04-02T05:52:44.859Z,9.95
2018-04-02T05:55:13.526Z,13.50
2018-04-02T05:57:42.048Z,10.18
2018-04-02T06:00:10.437Z,13.20
2018-04-02T06:02:38.841Z,10.50
2018-04-02T06:05:07.214Z,10.50
2018-04-02T06:07:35.559Z,11.82
2018-04-02T06:10:04.553Z,7.10
2018-04-02T06:12:36.380Z,13.85
2018-04-02T06:15:04.781Z,14.87
2018-04-02T06:17:33.226Z,12.10
2018-04-02T06:20:02.638Z,5.10
2018-04-02T06:22:30.978Z,7.53
2018-04-02T06:24:59.501Z,16.15
2018-04-02T06:27:27.915Z,11.50
2018-04-02T06:29:56.537Z,5.53
2018-04-02T06:32:25.258Z,7.43
2018-04-02T06:34:53.871Z,5.00
2018-04-02T06:37:23.372Z,5.22
2018-04-02T06:39:52.368Z,6.78
2018-04-02T06:42:20.987Z,10.70
2018-04-02T06:44:49.711Z,4.80
2018-04-02T06:47:18.553Z,7.32
2018-04-02T06:49:47.823Z,8.43
2018-04-02T06:52:16.334Z,6.55
2018-04-02T06:54:44.814Z,9.30
2018-04-02T06:57:13.244Z,4.75
2018-04-02T06:59:41.819Z,5.35
2018-04-02T07:02:12.231Z,2.97
2018-04-02T07:04:40.610Z,3.25
2018-04-02T07:07:09.057Z,3.35
2018-04-02T07:09:37.739Z,3.33
2018-04-02T07:12:06.370Z,6.10
2018-04-02T07:14:34.714Z,6.20
2018-04-02T07:17:03.385Z,10.10
2018-04-02T07:19:33.509Z,16.80
2018-04-02T07:22:01.985Z,4.62
2018-04-02T07:24:30.541Z,7.28
2018-04-02T07:26:58.918Z,5.15
2018-04-02T07:29:27.336Z,2.53
2018-04-02T07:31:55.883Z,7.80
2018-04-02T07:34:24.313Z,2.55
2018-04-02T07:36:52.879Z,2.22
2018-04-02T07:39:21.717Z,5.00
2018-04-02T07:41:50.166Z,4.45
2018-04-02T07:44:18.627Z,8.05
2018-04-02T07:46:47.158Z,12.50
2018-04-02T07:49:17.477Z,11.15
2018-04-02T07:51:45.969Z,5.22
2018-04-02T07:54:14.981Z,8.93
2018-04-02T07:56:44.616Z,3.28
2018-04-02T07:59:14.028Z,4.50
2018-04-02T08:01:42.646Z,2.35
2018-04-02T08:04:11.018Z,7.93
2018-04-02T08:06:39.411Z,8.40
2018-04-02T08:09:08.632Z,3.05
2018-04-02T08:11:37.037Z,4.93
2018-04-02T08:14:05.405Z,5.47
2018-04-02T08:16:34.275Z,3.92
2018-04-02T08:19:02.727Z,3.78
2018-04-02T08:21:31.270Z,7.70
2018-04-02T08:24:00.478Z,4.80
2018-04-02T08:26:28.950Z,2.95
2018-04-02T08:28:57.988Z,2.97
2018-04-02T08:31:27.177Z,8.75
2018-04-02T08:33:55.898Z,4.55
2018-04-02T08:36:29.288Z,1.80
2018-04-02T08:38:58.031Z,6.50
2018-04-02T08:41:27.228Z,2.55
2018-04-02T08:43:56.128Z,2.08
2018-04-02T08:46:24.636Z,9.00
2018-04-02T08:48:53.469Z,2.65
2018-04-02T08:51:21.880Z,6.53
2018-04-02T08:53:50.639Z,6.85
2018-04-02T08:56:19.280Z,9.70
2018-04-02T08:58:48.119Z,3.53
2018-04-02T09:01:16.840Z,7.62
2018-04-02T09:03:46.814Z,4.72
2018-04-02T09:06:15.348Z,2.72
2018-04-02T09:08:44.197Z,3.65
2018-04-02T09:11:13.048Z,5.80
2018-04-02T09:13:42.800Z,1.75
2018-04-02T09:16:11.897Z,2.33
2018-04-02T09:18:40.626Z,7.80
2018-04-02T09:21:10.125Z,4.50
2018-04-02T09:23:38.556Z,5.68
2018-04-02T09:26:06.930Z,6.20
2018-04-02T09:28:35.325Z,3.33
2018-04-02T09:31:03.689Z,3.00
2018-04-02T09:33:32.111Z,4.87
2018-04-02T09:36:00.537Z,4.70
2018-04-02T09:38:28.915Z,6.03
2018-04-02T09:40:57.403Z,7.53
2018-04-02T09:43:26.297Z,11.20
2018-04-02T09:45:54.801Z,10.65
2018-04-02T09:48:23.343Z,4.60
2018-04-02T09:50:52.068Z,5.60
2018-04-02T09:53:20.577Z,3.27
2018-04-02T09:55:48.995Z,3.50
2018-04-02T09:58:17.745Z,4.60
2018-04-02T10:00:46.282Z,2.90
2018-04-02T10:03:14.860Z,5.37
2018-04-02T10:05:44.625Z,2.87
2018-04-02T10:08:13.314Z,4.93
2018-04-02T10:10:41.948Z,2.93
2018-04-02T10:13:11.450Z,6.47
2018-04-02T10:15:39.883Z,3.90
2018-04-02T10:18:08.568Z,2.53
2018-04-02T10:20:38.379Z,5.63
2018-04-02T10:23:07.396Z,1.33
2018-04-02T10:25:35.978Z,1.77
2018-04-02T10:28:05.683Z,3.43
2018-04-02T10:30:34.404Z,3.87
2018-04-02T10:33:03.302Z,3.80
2018-04-02T10:35:31.938Z,4.57
2018-04-02T10:38:00.657Z,6.97
2018-04-02T10:40:30.048Z,10.20
2018-04-02T10:42:59.436Z,5.70
2018-04-02T10:45:28.008Z,14.77
2018-04-02T10:47:56.835Z,2.30
2018-04-02T10:50:26.155Z,1.83
2018-04-02T10:52:55.450Z,9.83
2018-04-02T10:55:24.313Z,2.97
2018-04-02T10:57:53.415Z,1.53
2018-04-02T11:00:22.313Z,2.57
2018-04-02T11:02:51.536Z,3.50
2018-04-02T11:05:20.596Z,3.73
2018-04-02T11:07:50.306Z,7.57
2018-04-02T11:10:19.604Z,11.87
2018-04-02T11:12:49.010Z,5.60
2018-04-02T11:15:19.621Z,3.80
2018-04-02T11:17:48.931Z,1.40
2018-04-02T11:20:18.633Z,2.27
2018-04-02T11:22:47.340Z,1.40
2018-04-02T11:25:17.234Z,3.33
2018-04-02T11:27:47.618Z,2.23
2018-04-02T11:30:15.965Z,1.60
2018-04-02T11:32:44.340Z,1.50
2018-04-02T11:35:12.990Z,6.23
2018-04-02T11:37:41.494Z,2.30
2018-04-02T11:40:10.110Z,8.40
2018-04-02T11:42:38.658Z,4.90
2018-04-02T11:45:07.162Z,1.93
2018-04-02T11:47:35.896Z,3.00
2018-04-02T11:50:05.956Z,3.50
2018-04-02T11:52:35.644Z,2.43
2018-04-02T11:55:04.863Z,1.50
2018-04-02T11:57:33.968Z,6.33
2018-04-02T12:00:02.694Z,6.50
2018-04-02T12:02:31.554Z,10.93
2018-04-02T12:05:00.063Z,4.40
2018-04-02T12:07:29.519Z,5.00
2018-04-02T12:09:58.299Z,4.00
2018-04-02T12:12:27.925Z,2.40
2018-04-02T12:14:56.701Z,2.90
2018-04-02T12:17:25.229Z,3.33
2018-04-02T12:19:53.867Z,4.53
2018-04-02T12:22:22.329Z,11.43
2018-04-02T12:24:51.057Z,6.50
2018-04-02T12:27:20.496Z,3.03
2018-04-02T12:29:49.009Z,5.00
2018-04-02T12:32:17.472Z,2.50
2018-04-02T12:34:46.687Z,2.47
2018-04-02T12:37:15.042Z,2.10
2018-04-02T12:39:43.388Z,4.00
2018-04-02T12:42:11.822Z,2.80
2018-04-02T12:44:40.212Z,1.70
2018-04-02T12:47:08.610Z,2.20
2018-04-02T12:49:37.005Z,2.17
2018-04-02T12:52:05.414Z,2.00
2018-04-02T12:54:33.793Z,8.47
2018-04-02T12:57:02.221Z,1.97
2018-04-02T12:59:31.880Z,2.50
2018-04-02T13:02:00.284Z,4.23
2018-04-02T13:04:28.712Z,3.53
2018-04-02T13:06:57.153Z,3.87
2018-04-02T13:09:25.630Z,2.30
2018-04-02T13:11:54.361Z,3.93
2018-04-02T13:14:22.925Z,3.63
2018-04-02T13:16:51.832Z,4.73
2018-04-02T13:19:21.095Z,2.90
2018-04-02T13:21:49.984Z,2.13
2018-04-02T13:24:18.483Z,6.33
2018-04-02T13:26:46.910Z,5.27
2018-04-02T13:29:15.378Z,6.50
2018-04-02T13:31:43.802Z,2.73
2018-04-02T13:34:12.566Z,3.07
2018-04-02T13:36:40.980Z,2.40
2018-04-02T13:39:09.393Z,5.83
2018-04-02T13:41:37.849Z,5.83
2018-04-02T13:44:06.311Z,3.77
2018-04-02T13:46:35.622Z,5.50
2018-04-02T13:49:04.769Z,4.50
2018-04-02T13:51:33.124Z,3.10
2018-04-02T13:54:01.525Z,6.90
2018-04-02T13:56:30.126Z,3.10
2018-04-02T13:58:58.488Z,2.80
2018-04-02T14:01:27.406Z,5.23
2018-04-02T14:03:56.314Z,3.30
2018-04-02T14:06:24.763Z,4.13
2018-04-02T14:08:56.413Z,8.60
2018-04-02T14:11:24.929Z,6.63
2018-04-02T14:13:53.383Z,4.20
2018-04-02T14:16:22.376Z,5.33
2018-04-02T14:18:50.845Z,5.87
2018-04-02T14:21:19.496Z,3.80
2018-04-02T14:23:48.987Z,4.93
2018-04-02T14:26:18.718Z,2.77
2018-04-02T14:28:47.492Z,8.30
2018-04-02T14:31:15.905Z,11.07
2018-04-02T14:33:44.382Z,4.77
2018-04-02T14:36:12.785Z,5.00
2018-04-02T14:38:41.200Z,4.17
2018-04-02T14:41:10.707Z,3.97
2018-04-02T14:43:39.063Z,4.90
2018-04-02T14:46:08.074Z,7.93
2018-04-02T14:48:36.466Z,5.93
2018-04-02T14:51:04.898Z,4.50
2018-04-02T14:53:33.295Z,6.77
2018-04-02T14:56:02.615Z,4.83
2018-04-02T14:58:31.911Z,11.53
2018-04-02T15:01:00.509Z,2.20
2018-04-02T15:03:28.925Z,4.40
2018-04-02T15:05:57.431Z,5.60
2018-04-02T15:08:26.116Z,7.10
2018-04-02T15:10:55.559Z,7.17
2018-04-02T15:13:24.204Z,2.50
2018-04-02T15:15:53.685Z,6.87
2018-04-02T15:18:22.396Z,1.90
2018-04-02T15:20:52.301Z,2.80
2018-04-02T15:23:20.766Z,3.17
2018-04-02T15:25:49.201Z,7.30
2018-04-02T15:28:18.634Z,2.17
2018-04-02T15:30:47.086Z,3.90
2018-04-02T15:33:15.568Z,4.13
2018-04-02T15:35:43.948Z,5.07
2018-04-02T15:38:12.323Z,3.43
2018-04-02T15:40:40.708Z,5.13
2018-04-02T15:43:09.136Z,3.10
2018-04-02T15:45:37.526Z,4.40
2018-04-02T15:48:08.115Z,5.23
2018-04-02T15:50:36.590Z,8.40
2018-04-02T15:53:05.077Z,5.40
2018-04-02T15:55:34.322Z,4.87
2018-04-02T15:58:03.159Z,4.85
2018-04-02T16:00:31.671Z,7.55
2018-04-02T16:03:00.252Z,5.35
2018-04-02T16:05:28.706Z,6.55
2018-04-02T16:07:57.383Z,11.82
2018-04-02T16:10:25.994Z,4.93
2018-04-02T16:12:54.456Z,10.45
2018-04-02T16:15:23.468Z,6.90
2018-04-02T16:17:52.040Z,8.35
2018-04-02T16:20:20.430Z,8.30
2018-04-02T16:22:49.034Z,5.12
2018-04-02T16:25:17.701Z,6.10
2018-04-02T16:27:46.092Z,10.30
2018-04-02T16:30:14.439Z,5.62
2018-04-02T16:32:42.899Z,3.50
2018-04-02T16:35:11.317Z,5.62
2018-04-02T16:37:41.662Z,3.10
2018-04-02T16:40:10.928Z,4.62
2018-04-02T16:42:39.345Z,5.40
2018-04-02T16:45:07.690Z,6.32
2018-04-02T16:47:36.070Z,4.95
2018-04-02T16:50:04.441Z,4.10
2018-04-02T16:52:33.744Z,10.73
2018-04-02T16:55:02.164Z,6.80
2018-04-02T16:57:30.503Z,4.72
2018-04-02T16:59:58.969Z,9.48
2018-04-02T17:02:27.623Z,7.78
2018-04-02T17:04:55.998Z,12.93
2018-04-02T17:07:24.997Z,7.15
2018-04-02T17:09:53.829Z,11.85
2018-04-02T17:12:23.678Z,6.45
2018-04-02T17:14:52.199Z,8.55
2018-04-02T17:17:20.700Z,8.90
2018-04-02T17:19:49.168Z,8.70
2018-04-02T17:22:17.621Z,6.15
2018-04-02T17:24:46.065Z,5.07
2018-04-02T17:27:14.569Z,3.80
2018-04-02T17:29:42.877Z,8.43
2018-04-02T17:32:11.546Z,4.70
2018-04-02T17:34:39.905Z,8.35
2018-04-02T17:37:08.284Z,8.63
2018-04-02T17:39:36.644Z,8.32
2018-04-02T17:42:05.166Z,8.98
2018-04-02T17:44:33.544Z,6.72
2018-04-02T17:47:01.934Z,7.00
2018-04-02T17:49:30.276Z,4.97
2018-04-02T17:51:58.700Z,11.10
2018-04-02T17:54:27.321Z,8.07
2018-04-02T17:56:55.805Z,8.90
2018-04-02T17:59:24.487Z,7.28
2018-04-02T18:01:54.178Z,11.82
2018-04-02T18:04:22.938Z,7.37
2018-04-02T18:06:51.402Z,5.95
2018-04-02T18:09:19.891Z,5.32
2018-04-02T18:11:48.597Z,5.90
2018-04-02T18:14:17.939Z,4.50
2018-04-02T18:16:46.857Z,6.87
2018-04-02T18:19:15.233Z,9.07
2018-04-02T18:21:43.845Z,7.85
2018-04-02T18:24:12.650Z,7.93
2018-04-02T18:26:41.085Z,10.13
2018-04-02T18:29:09.520Z,13.05
2018-04-02T18:31:39.074Z,9.43
2018-04-02T18:34:07.574Z,9.43
2018-04-02T18:36:35.952Z,9.32
2018-04-02T18:39:04.521Z,12.18
2018-04-02T18:41:33.001Z,13.20
2018-04-02T18:44:01.533Z,13.50
2018-04-02T18:46:30.004Z,10.90
2018-04-02T18:48:58.539Z,8.85
2018-04-02T18:51:27.125Z,15.10
2018-04-02T18:53:56.602Z,10.85
2018-04-02T18:56:27.036Z,16.08
2018-04-02T18:58:55.548Z,8.90
2018-04-02T19:01:24.094Z,10.07
2018-04-02T19:03:53.817Z,11.25
2018-04-02T19:06:22.288Z,14.10
2018-04-02T19:08:50.877Z,11.45
2018-04-02T19:11:19.461Z,10.88
2018-04-02T19:13:48.062Z,20.98
2018-04-02T19:16:17.035Z,8.63
2018-04-02T19:18:45.429Z,14.45
2018-04-02T19:21:13.902Z,11.05
2018-04-02T19:23:42.723Z,7.80
2018-04-02T19:26:11.097Z,12.18
2018-04-02T19:28:39.459Z,20.95
2018-04-02T19:31:07.878Z,11.48
2018-04-02T19:33:36.256Z,10.93
2018-04-02T19:36:04.648Z,15.02
2018-04-02T19:38:33.090Z,17.33
2018-04-02T19:41:01.551Z,12.07
2018-04-02T19:43:30.111Z,12.05
2018-04-02T19:45:59.137Z,14.35
2018-04-02T19:48:27.700Z,12.23
2018-04-02T19:50:56.182Z,12.35
2018-04-02T19:53:25.175Z,15.40
2018-04-02T19:55:53.720Z,11.90
2018-04-02T19:58:22.352Z,14.45
2018-04-02T20:00:51.141Z,14.70
2018-04-02T20:03:19.721Z,13.23
2018-04-02T20:05:48.441Z,24.05
2018-04-02T20:08:17.233Z,14.27
2018-04-02T20:10:45.589Z,21.73
2018-04-02T20:13:14.506Z,11.38
2018-04-02T20:15:43.812Z,13.27
2018-04-02T20:18:12.199Z,17.55
2018-04-02T20:20:40.608Z,15.77
2018-04-02T20:23:09.398Z,15.15
2018-04-02T20:25:37.697Z,14.27
2018-04-02T20:28:06.079Z,14.05
2018-04-02T20:30:35.531Z,14.55
2018-04-02T20:33:03.957Z,16.25
2018-04-02T20:35:32.318Z,11.77
2018-04-02T20:38:01.116Z,9.13
2018-04-02T20:40:29.525Z,13.48
2018-04-02T20:42:58.137Z,14.60
2018-04-02T20:45:26.775Z,16.65
2018-04-02T20:47:55.281Z,11.00
2018-04-02T20:50:23.717Z,15.00
2018-04-02T20:52:53.089Z,14.60
2018-04-02T20:55:21.544Z,19.23
2018-04-02T20:57:50.042Z,14.25
2018-04-02T21:00:19.176Z,17.00
2018-04-02T21:02:48.152Z,18.55
2018-04-02T21:05:16.666Z,12.57
2018-04-02T21:07:45.159Z,15.57
2018-04-02T21:10:13.538Z,17.67
2018-04-02T21:12:41.917Z,17.08
2018-04-02T21:15:12.579Z,11.88
2018-04-02T21:17:40.958Z,12.90
2018-04-02T21:20:09.765Z,18.00
2018-04-02T21:22:38.544Z,16.55
2018-04-02T21:25:06.976Z,18.73
2018-04-02T21:27:35.374Z,16.65
2018-04-02T21:30:03.727Z,16.37
2018-04-02T21:32:32.112Z,19.62
2018-04-02T21:35:00.511Z,10.73
2018-04-02T21:37:30.217Z,14.95
2018-04-02T21:39:58.798Z,13.10
2018-04-02T21:42:27.627Z,12.98
2018-04-02T21:44:56.579Z,13.57
2018-04-02T21:47:25.111Z,19.02
2018-04-02T21:49:53.609Z,14.10
2018-04-02T21:52:22.846Z,12.20
2018-04-02T21:54:51.429Z,20.48
2018-04-02T21:57:20.652Z,12.98
2018-04-02T21:59:49.531Z,14.90
2018-04-02T22:02:18.091Z,19.98
2018-04-02T22:04:46.655Z,14.02
2018-04-02T22:07:15.040Z,13.77
2018-04-02T22:09:43.536Z,13.30
2018-04-02T22:12:11.898Z,12.48
2018-04-02T22:14:40.733Z,17.87
2018-04-02T22:17:09.144Z,16.95
2018-04-02T22:19:37.550Z,14.85
2018-04-02T22:22:05.970Z,17.58
2018-04-02T22:24:34.335Z,10.48
2018-04-02T22:27:02.729Z,17.77
2018-04-02T22:29:31.319Z,15.70
2018-04-02T22:31:59.659Z,13.60
2018-04-02T22:34:28.255Z,17.58
2018-04-02T22:36:57.766Z,17.55
2018-04-02T22:39:26.331Z,13.35
2018-04-02T22:41:54.898Z,13.20
2018-04-02T22:44:23.335Z,13.10
2018-04-02T22:46:51.739Z,14.77
2018-04-02T22:49:20.317Z,12.55
2018-04-02T22:51:48.736Z,14.75
2018-04-02T22:54:17.101Z,12.30
2018-04-02T22:56:45.644Z,20.65
2018-04-02T22:59:14.871Z,14.05
2018-04-02T23:01:43.272Z,12.45
2018-04-02T23:04:12.977Z,18.00
2018-04-02T23:06:41.637Z,17.62
2018-04-02T23:09:09.991Z,15.30
2018-04-02T23:11:42.279Z,20.33
2018-04-02T23:14:11.619Z,17.52
2018-04-02T23:16:39.967Z,16.37
2018-04-02T23:19:09.492Z,15.93
2018-04-02T23:21:37.849Z,18.50
2018-04-02T23:24:06.662Z,17.52
2018-04-02T23:26:35.951Z,18.85
2018-04-02T23:29:04.427Z,19.87
2018-04-02T23:31:33.674Z,18.48
2018-04-02T23:34:02.585Z,22.60
2018-04-02T23:36:30.945Z,18.25
2018-04-02T23:38:59.753Z,22.40
2018-04-02T23:41:28.220Z,21.95
2018-04-02T23:43:56.784Z,21.05
2018-04-02T23:46:25.397Z,21.48
2018-04-02T23:48:54.195Z,16.58
2018-04-02T23:51:23.908Z,22.52
2018-04-02T23:53:52.274Z,17.58
2018-04-02T23:56:20.906Z,21.83
2018-04-02T23:58:49.727Z,29.30
